Time;durP1;ratioP1;P1;durP2;ratioP2;P2;SDS_P1;SDS_P2;PMS_P1;PMS_P2;Temp;Humidity;BMP_temperature;BMP_pressure;BME280_temperature;BME280_humidity;BME280_pressure;Samples;Min_cycle;Max_cycle;Signal;HPM_P1;HPM_P2
2023/08/09 00:02:09;;;;;;;;;;;20.30;78.90;;;20.55;47.06;98543.41;4990711;28;114093;-81
2023/08/09 00:04:42;;;;;;;;;;;20.30;79.10;;;20.55;46.57;98546.22;5001197;28;113750;-80
2023/08/09 00:07:08;;;;;;;;;;;20.30;79.10;;;20.53;47.08;98541.00;4973272;28;124134;-81
2023/08/09 00:09:34;;;;;;;;;;;20.30;79.20;;;20.55;46.97;98538.63;4980779;28;123298;-82
2023/08/09 00:12:00;;;;;;;;;;;20.30;79.20;;;20.56;46.81;98533.81;4989434;28;114363;-80
2023/08/09 00:14:27;;;;;;;;;;;20.30;79.30;;;20.57;46.59;98535.44;4991285;28;113688;-81
2023/08/09 00:16:56;;;;;;;;;;;20.30;79.30;;;20.58;46.59;98534.22;4975497;28;124182;-80
2023/08/09 00:19:24;;;;;;;;;;;20.30;79.30;;;20.58;46.70;98535.06;4983940;28;124047;-80
2023/08/09 00:21:50;;;;;;;;;;;20.30;79.40;;;20.57;46.74;98536.22;4981750;28;114662;-80
2023/08/09 00:24:19;;;;;;;;;;;20.30;79.50;;;20.56;46.74;98536.63;4982529;28;113551;-80
2023/08/09 00:26:46;;;;;;;;;;;20.30;79.50;;;20.55;46.75;98533.00;4983306;28;124142;-79
2023/08/09 00:29:12;;;;;;;;;;;20.30;79.60;;;20.56;46.66;98534.63;4984849;28;124522;-79
2023/08/09 00:31:38;;;;;;;;;;;20.30;79.60;;;20.57;47.10;98533.44;4979842;28;115193;-80
2023/08/09 00:34:06;;;;;;;;;;;20.30;79.70;;;20.58;47.06;98539.84;4984268;28;114605;-80
2023/08/09 00:36:34;;;;;;;;;;;20.30;79.80;;;20.55;46.87;98533.00;4978424;28;124342;-79
2023/08/09 00:39:01;;;;;;;;;;;20.30;79.80;;;20.54;46.78;98530.59;4977606;28;123931;-80
2023/08/09 00:41:33;;;;;;;;;;;20.30;80.10;;;20.50;47.03;98524.94;4976868;28;114406;-82
2023/08/09 00:43:59;;;;;;;;;;;20.20;80.20;;;20.47;47.19;98526.50;4985609;28;114519;-81
2023/08/09 00:46:26;;;;;;;;;;;20.20;80.40;;;20.47;47.71;98526.50;4982485;28;124574;-80
2023/08/09 00:48:55;;;;;;;;;;;20.20;80.60;;;20.48;47.51;98521.69;4979208;28;123720;-80
2023/08/09 00:51:21;;;;;;;;;;;20.20;80.80;;;20.48;48.03;98525.28;4979797;28;114525;-79
2023/08/09 00:53:48;;;;;;;;;;;20.20;81.00;;;20.49;47.78;98520.47;4975627;28;113784;-79
2023/08/09 00:56:17;;;;;;;;;;;20.20;81.20;;;20.48;48.04;98510.47;4988095;28;122942;-80
2023/08/09 00:58:43;;;;;;;;;;;20.20;81.30;;;20.48;47.99;98516.06;4989597;28;124308;-79
2023/08/09 01:01:11;;;;;;;;;;;20.20;81.50;;;20.47;48.29;98514.44;4989500;28;114043;-78
2023/08/09 01:03:38;;;;;;;;;;;20.20;81.80;;;20.44;48.40;98513.22;4989723;28;113743;-80
2023/08/09 01:06:23;;;;;;;;;;;20.20;82.10;;;20.43;48.58;98520.03;4996059;28;124610;-81
2023/08/09 01:09:22;;;;;;;;;;;20.10;82.40;;;20.42;49.10;98520.44;4979910;28;124293;-79
2023/08/09 01:11:55;;;;;;;;;;;20.10;82.70;;;20.36;49.11;98516.34;4984371;28;114182;-78
2023/08/09 01:14:23;;;;;;;;;;;20.10;82.80;;;20.33;49.13;98517.91;4968661;28;113017;-82
2023/08/09 01:16:57;;;;;;;;;;;20.10;83.20;;;20.32;49.14;98507.09;4976568;28;124410;-81
2023/08/09 01:19:45;;;;;;;;;;;20.10;83.40;;;20.30;49.35;98499.03;4989593;28;124014;-82
2023/08/09 01:22:24;;;;;;;;;;;20.10;83.70;;;20.29;49.44;98512.28;4986599;28;115402;-82
2023/08/09 01:24:50;;;;;;;;;;;20.10;84.00;;;20.28;49.66;98504.22;4987824;28;114620;-81
2023/08/09 01:27:19;;;;;;;;;;;20.00;84.10;;;20.25;49.46;98505.81;4992219;28;123876;-81
2023/08/09 01:29:47;;;;;;;;;;;20.00;84.40;;;20.24;50.01;98507.00;4974808;28;122300;-82
2023/08/09 01:32:13;;;;;;;;;;;20.00;84.70;;;20.22;49.88;98497.34;4974923;28;113709;-82
2023/08/09 01:34:39;;;;;;;;;;;20.00;84.90;;;20.23;50.29;98501.78;4973752;28;114443;-80
2023/08/09 01:37:15;;;;;;;;;;;20.00;85.00;;;20.22;50.07;98492.53;4976645;28;125886;-82
2023/08/09 01:39:46;;;;;;;;;;;20.00;85.30;;;20.21;50.31;98490.94;4968395;28;123998;-81
2023/08/09 01:42:13;;;;;;;;;;;19.90;85.30;;;20.19;50.26;98493.31;4980413;28;115750;-80
2023/08/09 01:44:39;;;;;;;;;;;19.90;85.40;;;20.19;50.27;98498.13;4974817;28;113901;-79
2023/08/09 01:47:08;;;;;;;;;;;19.90;85.70;;;20.16;50.71;98505.31;4977069;28;124103;-79
2023/08/09 01:49:34;;;;;;;;;;;19.90;86.00;;;20.12;50.95;98504.44;4986510;28;123952;-81
2023/08/09 01:52:01;;;;;;;;;;;19.90;86.40;;;20.06;50.82;98500.38;4969568;28;114998;-80
2023/08/09 01:54:27;;;;;;;;;;;19.80;86.40;;;20.01;51.10;98509.13;4966906;28;111930;-80
2023/08/09 01:56:56;;;;;;;;;;;19.80;86.70;;;19.99;51.37;98505.94;4967659;28;124110;-82
2023/08/09 01:59:23;;;;;;;;;;;19.80;87.00;;;19.96;51.42;98515.91;4968101;28;124065;-83
2023/08/09 02:01:49;;;;;;;;;;;19.80;87.20;;;19.94;51.70;98514.69;4981180;28;114100;-80
2023/08/09 02:04:15;;;;;;;;;;;19.70;87.30;;;19.91;51.82;98521.03;4977246;28;114122;-83
2023/08/09 02:06:44;;;;;;;;;;;19.70;87.60;;;19.89;51.93;98523.44;4978291;28;124407;-82
2023/08/09 02:09:11;;;;;;;;;;;19.70;87.90;;;19.87;51.97;98535.00;4997166;28;123840;-83
2023/08/09 02:11:37;;;;;;;;;;;19.60;88.00;;;19.85;52.05;98543.00;4986657;28;114222;-82
2023/08/09 02:14:03;;;;;;;;;;;19.60;88.20;;;19.82;51.93;98547.38;4983664;28;115317;-79
2023/08/09 02:16:36;;;;;;;;;;;19.60;88.40;;;19.82;52.15;98540.97;4990736;28;124175;-83
2023/08/09 02:19:03;;;;;;;;;;;19.60;88.60;;;19.81;52.40;98537.34;4990077;28;124217;-84
2023/08/09 02:21:39;;;;;;;;;;;19.60;88.90;;;19.80;52.67;98537.72;4993771;28;114341;-80
2023/08/09 02:24:11;;;;;;;;;;;19.60;89.20;;;19.78;52.81;98535.31;5000146;28;113038;-79
2023/08/09 02:26:42;;;;;;;;;;;19.60;89.60;;;19.77;52.84;98538.47;4990548;28;124141;-82
2023/08/09 02:29:09;;;;;;;;;;;19.60;90.00;;;19.75;53.06;98540.88;4996088;28;123585;-81
2023/08/09 02:31:35;;;;;;;;;;;19.50;90.00;;;19.74;53.13;98544.84;4989913;28;114542;-83
2023/08/09 02:34:02;;;;;;;;;;;19.50;90.10;;;19.72;53.10;98536.84;4985996;28;115259;-82
2023/08/09 02:36:28;;;;;;;;;;;19.50;90.20;;;19.70;53.43;98542.00;4971879;28;124400;-80
2023/08/09 02:38:57;;;;;;;;;;;19.50;90.30;;;19.68;53.42;98538.78;4996389;28;123836;-82
2023/08/09 02:41:24;;;;;;;;;;;19.40;90.40;;;19.64;53.58;98540.72;5001256;28;114357;-81
2023/08/09 02:43:50;;;;;;;;;;;19.40;90.40;;;19.62;53.49;98537.47;4979670;28;114379;-82
2023/08/09 02:46:18;;;;;;;;;;;19.40;90.50;;;19.61;53.75;98533.88;5004330;28;124311;-83
2023/08/09 02:48:45;;;;;;;;;;;19.40;90.60;;;19.60;53.84;98534.22;4981491;28;123932;-82
2023/08/09 02:51:14;;;;;;;;;;;19.40;90.70;;;19.58;53.50;98537.41;4980148;28;114499;-83
2023/08/09 02:54:03;;;;;;;;;;;19.60;90.80;;;19.55;53.58;98537.34;4980030;28;114387;-82
2023/08/09 02:56:35;;;;;;;;;;;19.40;90.80;;;19.56;53.76;98541.78;4987628;28;123811;-82
2023/08/09 02:59:02;;;;;;;;;;;19.30;90.80;;;19.55;53.88;98534.56;4992263;28;123725;-83
2023/08/09 03:01:29;;;;;;;;;;;19.40;90.90;;;19.56;53.68;98541.78;4982270;28;115231;-82
2023/08/09 03:03:55;;;;;;;;;;;19.30;90.90;;;19.57;53.84;98551.81;4985180;28;113792;-82
2023/08/09 03:06:27;;;;;;;;;;;19.30;90.90;;;19.57;53.80;98543.41;4966078;28;124166;-83
2023/08/09 03:08:53;;;;;;;;;;;19.30;91.00;;;19.55;53.74;98531.75;4978314;28;124015;-83
2023/08/09 03:11:28;;;;;;;;;;;19.30;91.00;;;19.56;53.91;98533.38;4982830;28;114181;-82
2023/08/09 03:13:54;;;;;;;;;;;19.30;91.10;;;19.57;53.80;98535.00;5005976;28;112801;-81
2023/08/09 03:16:20;;;;;;;;;;;19.30;91.10;;;19.58;53.68;98531.00;4975610;28;124376;-83
2023/08/09 03:18:56;;;;;;;;;;;19.30;91.10;;;19.59;53.94;98535.44;4989912;28;123941;-83
2023/08/09 03:21:22;;;;;;;;;;;19.30;91.20;;;19.60;54.00;98528.63;4990135;28;114420;-82
2023/08/09 03:23:50;;;;;;;;;;;19.30;91.20;;;19.62;53.79;98534.66;4996378;28;114656;-82
2023/08/09 03:26:16;;;;;;;;;;;19.30;91.30;;;19.64;53.94;98529.50;4991177;28;124253;-82
2023/08/09 03:28:43;;;;;;;;;;;19.30;91.30;;;19.65;53.48;98539.50;5000092;28;124258;-81
2023/08/09 03:31:09;;;;;;;;;;;19.30;91.20;;;19.62;53.65;98529.84;4979157;28;113892;-82
2023/08/09 03:33:38;;;;;;;;;;;19.30;91.10;;;19.60;53.38;98528.63;4988194;28;112958;-82
2023/08/09 03:36:05;;;;;;;;;;;19.30;91.10;;;19.58;53.45;98536.59;4973707;28;124281;-81
2023/08/09 03:38:32;;;;;;;;;;;19.30;91.10;;;19.58;53.14;98539.41;4989037;28;123965;-82
2023/08/09 03:41:01;;;;;;;;;;;19.30;91.10;;;19.54;53.25;98536.56;4991351;28;114451;-81
2023/08/09 03:43:27;;;;;;;;;;;19.20;91.10;;;19.52;53.18;98532.50;4992333;28;113771;-78
2023/08/09 03:45:56;;;;;;;;;;;19.20;91.00;;;19.50;53.24;98526.47;4996681;28;125010;-81
2023/08/09 03:48:25;;;;;;;;;;;19.20;91.00;;;19.49;53.09;98533.28;4982148;28;124111;-82
2023/08/09 03:50:52;;;;;;;;;;;19.20;91.00;;;19.48;53.23;98537.25;4971314;28;115708;-80
2023/08/09 03:53:18;;;;;;;;;;;19.20;91.00;;;19.47;53.06;98541.25;4979719;28;114558;-80
2023/08/09 03:55:44;;;;;;;;;;;19.20;91.00;;;19.46;52.97;98545.25;4987950;28;124084;-81
2023/08/09 03:58:13;;;;;;;;;;;19.10;90.90;;;19.43;53.15;98542.00;4973601;28;123850;-80
2023/08/09 04:00:40;;;;;;;;;;;19.10;90.90;;;19.42;53.27;98542.38;4984426;28;112853;-81
2023/08/09 04:03:06;;;;;;;;;;;19.10;90.90;;;19.42;53.11;98548.81;4989756;28;115089;-80
2023/08/09 04:05:38;;;;;;;;;;;19.10;90.90;;;19.43;52.93;98550.41;4987618;28;123429;-81
2023/08/09 04:08:06;;;;;;;;;;;19.10;90.90;;;19.41;52.82;98554.78;4981258;28;124717;-81
2023/08/09 04:10:33;;;;;;;;;;;19.10;90.80;;;19.42;52.75;98553.56;4993887;28;113913;-82
2023/08/09 04:13:02;;;;;;;;;;;19.10;90.80;;;19.40;52.87;98542.75;4983268;28;113444;-81
2023/08/09 04:15:29;;;;;;;;;;;19.10;90.80;;;19.40;52.65;98551.16;4988436;28;123177;-81
2023/08/09 04:17:55;;;;;;;;;;;19.10;90.80;;;19.40;52.97;98548.38;4989207;28;123333;-82
2023/08/09 04:20:22;;;;;;;;;;;19.10;90.90;;;19.40;52.92;98547.56;4975987;28;114383;-82
2023/08/09 04:22:49;;;;;;;;;;;19.10;90.90;;;19.40;52.82;98542.75;4990736;28;113742;-81
2023/08/09 04:25:18;;;;;;;;;;;19.10;90.90;;;19.42;52.91;98545.16;4989154;28;124532;-82
2023/08/09 04:27:45;;;;;;;;;;;19.10;90.90;;;19.42;52.95;98534.81;4991753;28;122899;-82
2023/08/09 04:30:15;;;;;;;;;;;19.10;90.90;;;19.41;52.67;98538.75;4979456;28;114678;-82
2023/08/09 04:32:41;;;;;;;;;;;19.10;90.90;;;19.38;52.65;98522.72;4973762;28;113678;-83
2023/08/09 04:35:10;;;;;;;;;;;19.10;90.90;;;19.38;52.94;98535.94;4977989;28;124179;-79
2023/08/09 04:37:38;;;;;;;;;;;19.10;90.90;;;19.34;52.87;98527.47;4979796;28;123730;-82
2023/08/09 04:40:10;;;;;;;;;;;19.10;91.10;;;19.33;52.96;98527.84;4969051;28;116074;-81
2023/08/09 04:42:45;;;;;;;;;;;19.00;90.90;;;19.31;53.07;98528.22;4977030;28;114499;-81
2023/08/09 04:45:16;;;;;;;;;;;19.00;90.90;;;19.31;52.81;98531.00;4992154;28;124366;-81
2023/08/09 04:47:43;;;;;;;;;;;19.00;90.90;;;19.33;53.05;98536.25;4986112;28;123985;-81
2023/08/09 04:50:14;;;;;;;;;;;19.00;90.90;;;19.32;53.02;98538.25;4989179;28;114670;-81
2023/08/09 04:52:41;;;;;;;;;;;19.00;90.90;;;19.33;52.99;98537.06;4989899;28;113952;-81
2023/08/09 04:55:08;;;;;;;;;;;19.00;90.80;;;19.35;52.51;98534.69;4990107;28;124819;-81
2023/08/09 04:57:40;;;;;;;;;;;19.10;90.80;;;19.36;52.70;98536.28;4989570;28;123859;-80
2023/08/09 05:00:10;;;;;;;;;;;19.10;90.80;;;19.37;52.63;98528.69;4971900;28;113484;-83
2023/08/09 05:02:41;;;;;;;;;;;19.00;90.80;;;19.40;52.57;98536.38;4977716;28;113434;-80
2023/08/09 05:05:09;;;;;;;;;;;19.00;90.70;;;19.38;52.50;98531.13;4972360;28;124159;-81
2023/08/09 05:07:39;;;;;;;;;;;19.10;90.70;;;19.40;52.26;98525.97;4973173;28;123637;-80
2023/08/09 05:10:06;;;;;;;;;;;19.10;90.60;;;19.42;52.43;98534.81;4975484;28;114529;-81
2023/08/09 05:12:33;;;;;;;;;;;19.10;90.60;;;19.44;52.23;98534.41;4981054;28;113809;-81
2023/08/09 05:15:08;;;;;;;;;;;19.10;90.60;;;19.46;51.99;98532.03;4975485;28;124873;-80
2023/08/09 05:17:35;;;;;;;;;;;19.10;90.50;;;19.50;52.28;98534.88;4977696;28;124201;-81
2023/08/09 05:20:03;;;;;;;;;;;19.20;90.50;;;19.54;52.12;98541.34;4977546;28;113406;-79
2023/08/09 05:22:34;;;;;;;;;;;19.20;90.60;;;19.56;52.04;98534.19;4990873;28;113291;-81
2023/08/09 05:25:06;;;;;;;;;;;19.20;90.60;;;19.58;52.20;98536.59;4978170;28;122842;-82
2023/08/09 05:27:32;;;;;;;;;;;19.20;90.90;;;19.56;52.06;98533.38;4967053;28;122120;-80
2023/08/09 05:30:08;;;;;;;;;;;19.20;90.50;;;19.56;51.61;98527.78;4984137;28;115422;-81
2023/08/09 05:32:34;;;;;;;;;;;19.20;90.50;;;19.56;51.94;98533.38;4981740;28;114733;-81
2023/08/09 05:35:06;;;;;;;;;;;19.20;90.50;;;19.57;52.01;98526.59;4969420;28;124682;-79
2023/08/09 05:37:32;;;;;;;;;;;19.20;90.40;;;19.56;52.05;98522.97;4984137;28;124308;-79
2023/08/09 05:40:09;;;;;;;;;;;19.20;90.50;;;19.57;51.93;98527.38;4975460;28;114177;-80
2023/08/09 05:42:38;;;;;;;;;;;19.20;90.40;;;19.58;52.37;98522.59;4989033;28;114235;-80
2023/08/09 05:45:05;;;;;;;;;;;19.30;90.50;;;19.61;51.88;98533.03;4994233;28;124334;-79
2023/08/09 05:47:32;;;;;;;;;;;19.30;90.50;;;19.62;51.81;98529.06;4990953;28;123545;-80
2023/08/09 05:50:07;;;;;;;;;;;19.30;90.50;;;19.65;51.90;98533.91;4989152;28;114619;-79
2023/08/09 05:52:34;;;;;;;;;;;19.30;90.50;;;19.67;51.81;98527.97;4991256;28;113652;-79
2023/08/09 05:55:06;;;;;;;;;;;19.30;90.50;;;19.71;51.86;98534.41;4991496;28;124345;-80
2023/08/09 05:57:32;;;;;;;;;;;19.40;90.50;;;19.71;51.68;98535.22;4990882;28;124572;-80
2023/08/09 06:00:04;;;;;;;;;;;19.40;90.80;;;19.74;51.90;98534.44;4993460;28;114746;-81
2023/08/09 06:02:33;;;;;;;;;;;19.40;90.40;;;19.73;52.02;98530.03;4988819;28;114104;-82
2023/08/09 06:05:03;;;;;;;;;;;19.40;90.40;;;19.76;51.81;98534.88;4974905;28;124298;-79
2023/08/09 06:07:29;;;;;;;;;;;19.40;90.40;;;19.78;51.52;98538.13;4980936;28;124215;-80
2023/08/09 06:09:58;;;;;;;;;;;19.40;90.40;;;19.81;51.46;98534.53;4987436;28;114128;-81
2023/08/09 06:12:27;;;;;;;;;;;19.50;90.40;;;19.81;51.43;98537.34;4989588;28;113042;-80
2023/08/09 06:14:53;;;;;;;;;;;19.50;90.60;;;19.83;51.19;98546.19;4984869;28;124452;-79
2023/08/09 06:17:19;;;;;;;;;;;19.50;90.20;;;19.85;51.37;98546.63;4992885;28;123924;-79
2023/08/09 06:19:46;;;;;;;;;;;17.40;88.60;;;19.88;51.18;98544.22;4977101;28;115329;-86
2023/08/09 06:22:15;;;;;;;;;;;19.50;90.10;;;19.90;51.05;98547.47;4986613;28;114271;-82
2023/08/09 06:24:41;;;;;;;;;;;19.50;90.10;;;19.91;50.90;98543.47;4995301;28;124864;-82
2023/08/09 06:27:07;;;;;;;;;;;19.50;89.90;;;19.92;50.47;98545.09;4981600;28;123816;-75
2023/08/09 06:29:39;;;;;;;;;;;19.50;89.80;;;19.95;50.43;98555.53;4993562;28;114381;-83
2023/08/09 06:32:05;;;;;;;;;;;19.60;89.90;;;20.00;50.66;98546.81;4977655;28;113681;-83
2023/08/09 06:34:33;;;;;;;;;;;19.60;89.90;;;20.04;50.73;98556.06;4986441;28;123792;-83
2023/08/09 06:37:05;;;;;;;;;;;19.70;89.90;;;20.08;50.36;98551.31;4985818;28;123527;-80
2023/08/09 06:39:34;;;;;;;;;;;19.70;89.80;;;20.11;50.36;98561.75;4983759;28;114450;-81
2023/08/09 06:42:03;;;;;;;;;;;19.70;89.60;;;20.15;50.46;98558.97;4991805;28;113826;-81
2023/08/09 06:44:29;;;;;;;;;;;19.80;89.60;;;20.17;50.29;98562.22;4994838;28;124284;-82
2023/08/09 06:46:55;;;;;;;;;;;19.70;89.30;;;20.19;50.15;98566.25;4990961;28;124317;-81
2023/08/09 06:49:23;;;;;;;;;;;19.80;89.20;;;20.20;49.72;98556.69;4979293;28;114596;-85
2023/08/09 06:51:51;;;;;;;;;;;19.80;89.00;;;20.22;49.88;98554.28;4970901;28;113968;-87
2023/08/09 06:54:17;;;;;;;;;;;19.80;88.90;;;20.26;49.55;98571.97;4992588;28;124485;-83
2023/08/09 06:56:43;;;;;;;;;;;19.80;88.70;;;20.28;49.25;98555.56;4979207;28;123657;-83
2023/08/09 06:59:10;;;;;;;;;;;19.80;88.60;;;20.31;49.46;98551.19;4995006;28;114400;-85
2023/08/09 07:01:39;;;;;;;;;;;19.90;88.50;;;20.36;49.25;98564.03;4972980;28;113835;-82
2023/08/09 07:04:08;;;;;;;;;;;19.90;88.40;;;20.41;49.28;98572.13;4981966;28;124391;-83
2023/08/09 07:06:40;;;;;;;;;;;20.00;88.50;;;20.45;49.45;98578.59;4977082;28;124687;-82
2023/08/09 07:09:07;;;;;;;;;;;20.00;88.40;;;20.50;49.60;98575.44;4977719;28;115241;-80
2023/08/09 07:11:33;;;;;;;;;;;20.10;88.60;;;20.54;49.34;98587.53;4980067;28;114885;-81
2023/08/09 07:14:05;;;;;;;;;;;20.10;88.40;;;20.57;48.93;98595.19;4986574;28;124898;-80
2023/08/09 07:16:31;;;;;;;;;;;20.20;88.40;;;20.59;49.04;98606.84;4986668;28;124150;-81
2023/08/09 07:18:58;;;;;;;;;;;20.20;88.20;;;20.62;49.44;98599.66;4983762;28;116091;-81
2023/08/09 07:21:30;;;;;;;;;;;20.20;88.20;;;20.66;49.38;98601.31;4979132;28;113646;-82
2023/08/09 07:23:56;;;;;;;;;;;20.30;88.30;;;20.70;49.14;98595.72;4983580;28;123684;-82
2023/08/09 07:26:22;;;;;;;;;;;20.30;88.30;;;20.74;48.84;98591.78;4979708;28;124535;-81
2023/08/09 07:28:50;;;;;;;;;;;20.40;88.20;;;20.79;48.92;98592.59;4977560;28;114310;-82
2023/08/09 07:31:20;;;;;;;;;;;20.40;88.10;;;20.82;49.35;98591.81;4977327;28;113732;-78
2023/08/09 07:33:52;;;;;;;;;;;20.40;88.20;;;20.86;48.88;98601.09;4978517;28;124976;-80
2023/08/09 07:36:21;;;;;;;;;;;20.50;88.00;;;20.88;48.87;98601.53;4980054;28;124138;-81
2023/08/09 07:38:50;;;;;;;;;;;20.50;88.00;;;20.90;48.86;98599.13;4985052;28;114065;-80
2023/08/09 07:41:16;;;;;;;;;;;20.50;87.80;;;20.93;48.74;98598.38;4987576;28;114107;-79
2023/08/09 07:43:43;;;;;;;;;;;20.50;87.90;;;20.97;48.77;98610.44;4978670;28;124447;-81
2023/08/09 07:46:16;;;;;;;;;;;20.60;88.00;;;21.04;49.03;98610.50;4976721;28;124167;-81
2023/08/09 07:48:45;;;;;;;;;;;20.60;88.00;;;21.09;48.73;98604.53;4979187;28;114453;-82
2023/08/09 07:51:14;;;;;;;;;;;20.70;88.00;;;21.15;48.67;98611.41;4989133;28;113676;-81
2023/08/09 07:53:40;;;;;;;;;;;20.70;87.90;;;21.18;48.77;98621.88;4982004;28;124456;-81
2023/08/09 07:56:07;;;;;;;;;;;20.80;87.70;;;21.21;48.53;98613.84;4969501;28;124632;-79
2023/08/09 07:58:40;;;;;;;;;;;20.80;87.40;;;21.22;48.38;98616.25;4971486;28;115555;-81
2023/08/09 08:01:07;;;;;;;;;;;20.80;87.20;;;21.27;48.17;98615.09;4976606;28;115111;-79
2023/08/09 08:03:33;;;;;;;;;;;20.90;87.50;;;21.33;48.18;98621.97;4972193;28;123601;-78
2023/08/09 08:06:03;;;;;;;;;;;20.90;87.40;;;21.36;48.12;98626.84;4967110;28;124609;-78
2023/08/09 08:08:29;;;;;;;;;;;21.00;87.40;;;21.40;48.14;98624.88;4975405;28;114313;-79
2023/08/09 08:10:55;;;;;;;;;;;21.00;87.10;;;21.42;48.10;98633.75;4955139;28;112927;-79
2023/08/09 08:13:24;;;;;;;;;;;21.00;86.80;;;21.42;47.85;98628.13;4955446;28;123991;-80
2023/08/09 08:15:50;;;;;;;;;;;21.00;86.60;;;21.43;48.09;98638.16;4972017;28;124135;-79
2023/08/09 08:18:18;;;;;;;;;;;21.10;86.70;;;21.45;47.51;98640.59;4983226;28;114375;-76
2023/08/09 08:20:44;;;;;;;;;;;21.10;86.50;;;21.46;47.87;98631.75;4953755;28;112921;-79
2023/08/09 08:23:11;;;;;;;;;;;21.10;86.60;;;21.45;47.51;98635.78;4980384;28;124830;-80
2023/08/09 08:25:37;;;;;;;;;;;21.10;86.40;;;21.46;47.99;98637.38;4988723;28;124593;-78
2023/08/09 08:28:09;;;;;;;;;;;21.10;86.50;;;21.51;48.04;98645.44;4974060;28;113298;-80
2023/08/09 08:30:36;;;;;;;;;;;21.20;86.80;;;21.54;47.86;98655.91;4984375;28;114728;-77
2023/08/09 08:33:12;;;;;;;;;;;21.20;86.60;;;21.54;47.58;98655.09;4978555;28;123894;-78
2023/08/09 08:35:43;;;;;;;;;;;21.10;86.50;;;21.54;47.81;98658.72;4968971;28;124005;-77
2023/08/09 08:38:10;;;;;;;;;;;21.20;86.60;;;21.55;47.91;98674.41;4978759;28;114829;-78
2023/08/09 08:40:38;;;;;;;;;;;21.20;86.80;;;21.59;47.52;98666.00;4982840;28;113822;-77
2023/08/09 08:43:08;;;;;;;;;;;21.20;86.50;;;21.57;47.78;98663.59;4976689;28;125687;-78
2023/08/09 08:45:38;;;;;;;;;;;21.20;86.50;;;21.58;47.71;98662.38;4984422;28;123765;-79
2023/08/09 08:48:08;;;;;;;;;;;21.20;86.40;;;21.59;47.97;98672.41;4980271;28;115203;-79
2023/08/09 08:50:43;;;;;;;;;;;21.20;86.40;;;21.58;47.57;98665.19;4968773;28;114765;-78
2023/08/09 08:53:10;;;;;;;;;;;21.20;86.30;;;21.60;48.08;98682.50;4984068;28;124433;-78
2023/08/09 08:55:37;;;;;;;;;;;21.20;86.40;;;21.62;47.74;98679.28;4986124;28;123961;-79
2023/08/09 08:58:08;;;;;;;;;;;21.20;86.30;;;21.61;47.76;98672.84;4987331;28;114245;-78
2023/08/09 09:00:36;;;;;;;;;;;21.30;86.50;;;21.61;48.09;98667.22;4988710;28;113578;-78
2023/08/09 09:03:06;;;;;;;;;;;21.30;86.50;;;21.66;47.84;98673.69;4977546;28;125676;-79
2023/08/09 09:05:33;;;;;;;;;;;21.30;86.70;;;21.70;47.72;98668.88;4984927;28;124604;-78
2023/08/09 09:07:59;;;;;;;;;;;21.30;86.70;;;21.74;47.94;98669.75;4967108;28;113498;-79
2023/08/09 09:10:26;;;;;;;;;;;21.30;86.80;;;21.76;48.31;98667.31;4985625;28;113543;-79
2023/08/09 09:12:58;;;;;;;;;;;21.40;86.90;;;21.80;47.80;98665.34;4987338;28;123580;-79
2023/08/09 09:15:26;;;;;;;;;;;21.40;86.90;;;21.83;47.73;98675.81;4983218;28;124056;-79
2023/08/09 09:17:55;;;;;;;;;;;21.40;86.80;;;21.88;47.94;98677.47;4985168;28;114392;-79
2023/08/09 09:20:24;;;;;;;;;;;21.50;86.90;;;21.90;47.56;98673.06;4977800;28;113580;-79
2023/08/09 09:22:56;;;;;;;;;;;21.50;86.70;;;21.90;47.82;98681.50;4985383;28;124330;-78
2023/08/09 09:25:23;;;;;;;;;;;21.50;86.50;;;21.90;47.95;98669.44;4984180;28;123959;-78
2023/08/09 09:27:59;;;;;;;;;;;21.50;86.50;;;21.88;47.54;98683.88;4956374;28;113528;-80
2023/08/09 09:30:34;;;;;;;;;;;21.50;86.50;;;21.86;47.85;98686.28;4978579;28;113942;-78
2023/08/09 09:33:08;;;;;;;;;;;21.50;86.50;;;21.87;47.96;98673.84;4977802;28;124243;-78
2023/08/09 09:35:35;;;;;;;;;;;21.50;86.60;;;21.89;48.10;98679.06;4983107;28;123976;-79
2023/08/09 09:38:02;;;;;;;;;;;21.50;86.80;;;21.93;47.78;98675.09;4985434;28;115167;-81
2023/08/09 09:40:35;;;;;;;;;;;21.60;87.60;;;21.98;47.77;98677.53;4985393;28;116324;-80
2023/08/09 09:43:10;;;;;;;;;;;21.60;86.70;;;21.97;47.79;98691.97;4977983;28;125593;-81
2023/08/09 09:45:37;;;;;;;;;;;21.60;86.70;;;21.95;47.81;98685.94;4978306;28;123723;-81
2023/08/09 09:48:21;;;;;;;;;;;21.60;86.30;;;21.91;47.82;98685.91;4983446;28;114316;-81
2023/08/09 09:50:48;;;;;;;;;;;21.60;86.50;;;21.95;47.78;98691.56;4967623;28;112855;-79
2023/08/09 09:53:22;;;;;;;;;;;21.60;86.70;;;21.96;47.73;98688.38;4980446;28;124255;-79
2023/08/09 09:55:54;;;;;;;;;;;21.60;86.70;;;21.99;47.70;98692.41;4978236;28;123975;-79
2023/08/09 09:58:21;;;;;;;;;;;21.60;86.80;;;22.02;47.98;98686.78;4968062;28;113885;-79
2023/08/09 10:00:55;;;;;;;;;;;21.60;86.70;;;22.04;47.50;98690.03;4980196;28;113761;-79
2023/08/09 10:03:26;;;;;;;;;;;21.70;86.70;;;22.06;47.75;98687.63;4977503;28;123981;-79
2023/08/09 10:05:56;;;;;;;;;;;21.70;86.70;;;22.06;47.80;98700.91;4972096;28;124062;-78
2023/08/09 10:08:26;;;;;;;;;;;21.70;86.70;;;22.06;47.58;98693.25;4966901;28;113533;-78
2023/08/09 10:10:59;;;;;;;;;;;21.70;86.60;;;22.06;47.76;98692.47;4986326;28;113828;-80
2023/08/09 10:13:26;;;;;;;;;;;21.70;86.40;;;22.01;47.89;98693.63;4982374;28;124856;-78
2023/08/09 10:16:02;;;;;;;;;;;21.70;86.60;;;22.01;47.62;98690.00;4980303;28;123942;-78
2023/08/09 10:18:35;;;;;;;;;;;21.70;86.70;;;22.02;48.04;98688.81;4973167;28;115066;-78
2023/08/09 10:21:13;;;;;;;;;;;21.70;86.90;;;22.03;47.96;98688.41;4979887;28;114624;-79
2023/08/09 10:24:07;;;;;;;;;;;21.70;86.90;;;22.03;47.82;98691.25;4979465;28;122744;-79
2023/08/09 10:26:37;;;;;;;;;;;21.70;86.90;;;22.04;48.38;98698.47;4979011;28;124594;-79
2023/08/09 10:29:11;;;;;;;;;;;21.70;87.20;;;22.03;47.91;98698.84;4979130;28;115363;-78
2023/08/09 10:31:48;;;;;;;;;;;21.70;87.20;;;22.01;48.49;98702.06;4985319;28;115004;-78
2023/08/09 10:34:36;;;;;;;;;;;21.70;87.40;;;22.01;48.22;98713.31;4977068;28;124307;-78
2023/08/09 10:37:06;;;;;;;;;;;21.70;87.70;;;22.03;48.59;98696.88;4985751;28;123764;-79
2023/08/09 10:39:35;;;;;;;;;;;21.70;87.60;;;22.05;48.43;98702.09;4985952;28;114743;-78
2023/08/09 10:42:08;;;;;;;;;;;21.70;87.70;;;22.06;48.71;98701.69;4988769;28;113878;-78
2023/08/09 10:44:44;;;;;;;;;;;21.70;87.80;;;22.08;48.88;98717.38;4984798;28;124588;-78
2023/08/09 10:47:13;;;;;;;;;;;21.70;87.90;;;22.10;48.61;98709.34;4970603;28;122959;-78
2023/08/09 10:49:48;;;;;;;;;;;21.70;88.00;;;22.11;48.54;98705.34;4986067;28;114697;-78
2023/08/09 10:52:19;;;;;;;;;;;21.70;87.90;;;22.14;48.74;98707.34;4988336;28;112645;-78
2023/08/09 10:54:46;;;;;;;;;;;21.70;88.00;;;22.15;48.73;98706.19;4985828;28;124369;-79
2023/08/09 10:57:13;;;;;;;;;;;21.70;88.00;;;22.18;48.54;98705.38;4984321;28;124367;-79
2023/08/09 10:59:46;;;;;;;;;;;21.80;88.10;;;22.22;48.04;98718.31;4982660;28;114672;-81
2023/08/09 11:02:18;;;;;;;;;;;20.40;86.80;;;22.20;48.73;98705.84;4982429;28;113156;-80
2023/08/09 11:04:44;;;;;;;;;;;21.80;88.00;;;22.19;48.60;98707.03;4985435;28;124841;-80
2023/08/09 11:07:20;;;;;;;;;;;21.80;88.20;;;22.23;48.56;98703.03;4987684;28;122931;-82
2023/08/09 11:09:46;;;;;;;;;;;21.90;88.20;;;22.26;48.59;98698.63;4982267;28;114421;-80
2023/08/09 11:12:20;;;;;;;;;;;21.90;88.10;;;22.26;48.84;98719.13;4986908;28;111699;-82
2023/08/09 11:14:46;;;;;;;;;;;21.90;88.30;;;22.28;48.87;98710.31;4990012;28;123929;-80
2023/08/09 11:17:13;;;;;;;;;;;21.90;88.40;;;22.31;49.05;98706.69;4990490;28;123857;-80
2023/08/09 11:19:42;;;;;;;;;;;22.00;88.50;;;22.35;48.84;98704.69;4984110;28;115509;-82